Time;durP1;ratioP1;P1;durP2;ratioP2;P2;SDS_P1;SDS_P2;PMS_P1;PMS_P2;Temp;Humidity;BMP_temperature;BMP_pressure;BME280_temperature;BME280_humidity;BME280_pressure;Samples;Min_cycle;Max_cycle;Signal;HPM_P1;HPM_P2
2022/03/14 00:01:25;;;;;;;10.70;9.37;;;1.80;76.20;;;;;;5060964;28;20207;-72
2022/03/14 00:03:53;;;;;;;14.17;9.93;;;1.70;76.90;;;;;;5072171;28;20572;-72
2022/03/14 00:06:20;;;;;;;19.70;10.83;;;1.60;78.20;;;;;;5081650;28;20643;-72
2022/03/14 00:08:46;;;;;;;12.23;9.53;;;1.50;78.20;;;;;;5079155;28;20544;-72
2022/03/14 00:11:16;;;;;;;13.70;10.00;;;1.40;80.00;;;;;;5072510;28;20270;-72
2022/03/14 00:13:46;;;;;;;11.67;9.97;;;1.20;81.00;;;;;;5071348;28;20222;-72
2022/03/14 00:16:15;;;;;;;10.60;9.20;;;1.30;80.70;;;;;;5080028;28;20547;-72
2022/03/14 00:18:43;;;;;;;11.33;9.20;;;1.20;80.60;;;;;;5083024;28;20171;-71
2022/03/14 00:21:10;;;;;;;10.73;9.13;;;1.10;81.60;;;;;;5075279;28;20553;-72
2022/03/14 00:23:36;;;;;;;10.87;9.20;;;1.10;81.50;;;;;;5071891;28;20199;-72
2022/03/14 00:26:05;;;;;;;10.67;9.27;;;1.10;81.20;;;;;;5069029;28;20245;-72
2022/03/14 00:28:30;;;;;;;12.97;9.67;;;1.10;81.40;;;;;;5074247;28;20229;-71
2022/03/14 00:30:56;;;;;;;11.40;8.80;;;1.10;82.00;;;;;;5074837;28;20190;-72
2022/03/14 00:33:22;;;;;;;11.80;9.30;;;1.00;82.70;;;;;;5073725;28;20245;-71
2022/03/14 00:35:47;;;;;;;12.50;9.57;;;1.10;83.00;;;;;;5077562;28;20175;-71
2022/03/14 00:38:15;;;;;;;10.67;8.87;;;1.30;81.70;;;;;;5074551;28;20176;-71
2022/03/14 00:40:41;;;;;;;10.63;8.97;;;1.40;81.00;;;;;;5067856;28;20196;-72
2022/03/14 00:43:07;;;;;;;11.60;8.73;;;1.50;80.30;;;;;;5066340;28;20244;-73
2022/03/14 00:45:34;;;;;;;10.90;9.03;;;1.40;80.40;;;;;;5073070;28;20167;-72
2022/03/14 00:48:00;;;;;;;10.97;9.03;;;1.40;80.10;;;;;;5065975;28;20168;-71
2022/03/14 00:50:26;;;;;;;9.90;8.43;;;1.40;80.20;;;;;;5074952;28;20178;-73
2022/03/14 00:52:52;;;;;;;9.97;8.83;;;1.30;80.40;;;;;;5068659;28;20210;-73
2022/03/14 00:55:18;;;;;;;10.90;9.03;;;1.20;80.80;;;;;;5070755;28;20336;-72
2022/03/14 00:57:43;;;;;;;11.90;9.30;;;1.10;81.90;;;;;;5070507;28;20187;-72
2022/03/14 01:00:09;;;;;;;10.93;9.10;;;1.00;82.90;;;;;;5070402;28;20221;-72
2022/03/14 01:02:35;;;;;;;11.70;9.33;;;0.90;84.30;;;;;;5075653;28;20555;-72
2022/03/14 01:05:01;;;;;;;11.13;9.40;;;0.80;85.10;;;;;;5070742;28;20249;-71
2022/03/14 01:07:26;;;;;;;11.40;9.47;;;0.70;85.50;;;;;;5052483;28;20210;-71
2022/03/14 01:09:52;;;;;;;14.03;9.23;;;0.80;85.10;;;;;;5074706;28;20329;-72
2022/03/14 01:12:18;;;;;;;11.80;9.20;;;0.80;85.00;;;;;;5069756;28;20198;-72
2022/03/14 01:14:43;;;;;;;10.77;8.73;;;0.80;86.00;;;;;;5072509;28;20673;-72
2022/03/14 01:17:10;;;;;;;10.30;8.87;;;0.90;86.20;;;;;;5071630;28;20186;-71
2022/03/14 01:19:38;;;;;;;10.60;8.33;;;0.90;86.00;;;;;;5064794;28;20668;-71
2022/03/14 01:22:10;;;;;;;10.73;8.50;;;1.00;85.30;;;;;;5079857;28;20713;-72
2022/03/14 01:24:38;;;;;;;14.97;9.43;;;1.10;84.50;;;;;;5080153;28;20210;-71
2022/03/14 01:27:05;;;;;;;15.20;9.43;;;1.20;84.00;;;;;;5067194;28;20187;-71
2022/03/14 01:29:31;;;;;;;10.70;8.87;;;1.20;83.00;;;;;;5058323;28;20225;-71
2022/03/14 01:31:58;;;;;;;11.13;8.67;;;1.10;83.30;;;;;;5071639;28;20266;-71
2022/03/14 01:34:24;;;;;;;11.70;9.47;;;1.00;83.90;;;;;;5070912;28;20855;-72
2022/03/14 01:36:50;;;;;;;11.97;8.37;;;0.90;84.50;;;;;;5069828;28;20167;-72
2022/03/14 01:39:16;;;;;;;12.17;9.77;;;0.90;85.10;;;;;;5071358;28;20755;-72
2022/03/14 01:41:41;;;;;;;11.77;9.30;;;0.80;85.30;;;;;;5067600;28;20199;-72
2022/03/14 01:44:07;;;;;;;11.77;8.87;;;0.80;86.40;;;;;;5067898;28;20286;-72
2022/03/14 01:46:33;;;;;;;11.73;8.80;;;0.70;87.20;;;;;;5072758;28;20176;-72
2022/03/14 01:49:00;;;;;;;10.60;9.50;;;0.60;87.80;;;;;;5072523;28;20209;-73
2022/03/14 01:51:25;;;;;;;9.73;8.83;;;0.60;88.80;;;;;;5069210;28;20581;-73
2022/03/14 01:53:52;;;;;;;13.93;9.27;;;0.60;89.30;;;;;;5066390;28;20195;-74
2022/03/14 01:56:18;;;;;;;11.23;9.50;;;0.70;89.00;;;;;;5070858;28;20186;-73
2022/03/14 01:58:46;;;;;;;12.13;9.67;;;0.70;89.60;;;;;;5066310;28;20182;-73
2022/03/14 02:01:13;;;;;;;12.90;9.40;;;0.50;90.50;;;;;;5070163;28;20250;-71
2022/03/14 02:03:38;;;;;;;11.57;9.20;;;0.50;90.30;;;;;;5067467;28;20224;-72
2022/03/14 02:06:04;;;;;;;11.57;8.77;;;0.50;90.50;;;;;;5074019;28;20210;-73
2022/03/14 02:08:30;;;;;;;12.83;9.30;;;0.50;90.70;;;;;;5075926;28;20254;-73
2022/03/14 02:10:55;;;;;;;10.13;8.63;;;0.50;90.70;;;;;;5071767;28;20202;-74
2022/03/14 02:13:21;;;;;;;11.93;8.70;;;0.50;90.80;;;;;;5066644;28;20199;-74
2022/03/14 02:15:47;;;;;;;11.83;9.30;;;0.50;90.70;;;;;;5073006;28;20266;-74
2022/03/14 02:18:13;;;;;;;12.70;9.37;;;0.50;90.70;;;;;;5075553;28;20189;-74
2022/03/14 02:20:38;;;;;;;11.40;9.33;;;0.30;91.00;;;;;;5069660;28;20210;-73
2022/03/14 02:23:04;;;;;;;12.23;9.90;;;0.30;91.70;;;;;;5066440;28;20253;-74
2022/03/14 02:25:32;;;;;;;11.20;8.67;;;0.20;92.10;;;;;;5075422;28;20223;-74
2022/03/14 02:27:58;;;;;;;10.60;9.50;;;0.20;92.30;;;;;;5067427;28;20223;-74
2022/03/14 02:30:23;;;;;;;10.30;8.77;;;0.20;92.00;;;;;;5077169;28;20594;-73
2022/03/14 02:32:49;;;;;;;11.37;9.63;;;0.20;92.20;;;;;;5067487;28;20844;-74
2022/03/14 02:35:15;;;;;;;13.73;9.23;;;0.20;92.30;;;;;;5075923;28;20650;-74
2022/03/14 02:37:41;;;;;;;13.50;9.83;;;0.20;92.20;;;;;;5074780;28;20181;-74
2022/03/14 02:40:08;;;;;;;9.93;8.00;;;0.20;92.30;;;;;;5067222;28;20207;-74
2022/03/14 02:42:34;;;;;;;12.97;9.93;;;0.20;92.50;;;;;;5070452;28;20256;-74
2022/03/14 02:45:02;;;;;;;12.23;8.63;;;0.20;92.30;;;;;;5068786;28;20225;-74
2022/03/14 02:47:28;;;;;;;10.87;9.50;;;0.20;92.80;;;;;;5070756;28;20170;-73
2022/03/14 02:49:53;;;;;;;11.93;8.30;;;0.10;93.10;;;;;;5071269;28;20176;-74
2022/03/14 02:52:19;;;;;;;11.13;9.73;;;0.10;93.50;;;;;;5071377;28;20217;-74
2022/03/14 02:54:45;;;;;;;11.10;9.37;;;0.10;93.30;;;;;;5068842;28;20203;-74
2022/03/14 02:57:11;;;;;;;11.43;8.87;;;0.10;93.30;;;;;;5063795;28;20180;-74
2022/03/14 02:59:37;;;;;;;10.30;9.20;;;0.00;93.40;;;;;;5069876;28;20168;-74
2022/03/14 03:02:03;;;;;;;9.60;8.10;;;0.10;93.70;;;;;;5073175;28;20639;-74
2022/03/14 03:04:28;;;;;;;10.63;8.70;;;0.10;94.30;;;;;;5061600;28;20204;-74
2022/03/14 03:06:54;;;;;;;9.53;8.23;;;0.10;94.00;;;;;;5067727;28;20229;-74
2022/03/14 03:09:20;;;;;;;10.80;9.27;;;0.10;94.10;;;;;;5074065;28;20176;-74
2022/03/14 03:11:46;;;;;;;10.53;8.90;;;0.10;94.00;;;;;;5067183;28;20175;-74
2022/03/14 03:14:12;;;;;;;11.67;8.80;;;0.10;94.10;;;;;;5069844;28;20207;-74
2022/03/14 03:16:38;;;;;;;10.07;8.93;;;0.10;94.20;;;;;;5069218;28;20175;-74
2022/03/14 03:19:06;;;;;;;11.83;8.63;;;0.20;94.50;;;;;;5071668;28;20602;-74
2022/03/14 03:21:34;;;;;;;10.60;8.77;;;0.10;94.40;;;;;;5069938;28;20194;-73
2022/03/14 03:24:00;;;;;;;10.73;8.80;;;0.10;94.50;;;;;;5090938;28;20190;-74
2022/03/14 03:26:25;;;;;;;12.40;9.27;;;0.10;94.70;;;;;;5061298;28;20188;-74
2022/03/14 03:28:51;;;;;;;14.40;9.20;;;0.00;94.90;;;;;;5065605;28;20185;-74
2022/03/14 03:31:18;;;;;;;11.43;9.43;;;0.00;95.00;;;;;;5067028;28;20187;-74
2022/03/14 03:33:45;;;;;;;9.57;8.37;;;0.00;95.00;;;;;;5065811;28;20191;-74
2022/03/14 03:36:10;;;;;;;10.40;9.37;;;0.00;95.20;;;;;;5072739;28;20183;-75
2022/03/14 03:38:37;;;;;;;11.80;9.40;;;-0.10;96.00;;;;;;5072405;28;20537;-74
2022/03/14 03:41:03;;;;;;;11.37;8.83;;;0.00;96.00;;;;;;5068350;28;20215;-74
2022/03/14 03:43:29;;;;;;;11.83;8.50;;;0.00;95.80;;;;;;5064390;28;20204;-74
2022/03/14 03:45:55;;;;;;;10.73;9.23;;;0.00;95.80;;;;;;5065885;28;20176;-74
2022/03/14 03:48:21;;;;;;;11.53;8.73;;;0.00;95.70;;;;;;5069528;28;20186;-74
2022/03/14 03:50:47;;;;;;;11.23;9.07;;;0.00;95.80;;;;;;5071278;28;20262;-74
2022/03/14 03:53:12;;;;;;;12.07;9.20;;;-0.10;96.50;;;;;;5071001;28;20206;-74
2022/03/14 03:55:38;;;;;;;10.87;8.73;;;-0.20;96.90;;;;;;5069659;28;20185;-75
2022/03/14 03:58:04;;;;;;;11.67;9.20;;;-0.10;97.20;;;;;;5060485;28;20658;-74
2022/03/14 04:00:30;;;;;;;10.63;9.37;;;0.00;97.20;;;;;;5075352;28;20198;-75
2022/03/14 04:02:56;;;;;;;10.60;8.87;;;0.00;97.10;;;;;;5081094;28;20679;-75
2022/03/14 04:05:23;;;;;;;19.67;10.63;;;-0.10;97.40;;;;;;5060978;28;20202;-73
2022/03/14 04:07:49;;;;;;;11.60;9.40;;;-0.20;98.20;;;;;;5059882;28;20191;-74
2022/03/14 04:10:15;;;;;;;11.03;9.93;;;-0.20;98.60;;;;;;5058005;28;20183;-74
2022/03/14 04:12:43;;;;;;;10.87;9.40;;;-0.20;97.90;;;;;;5055876;28;20183;-74
2022/03/14 04:15:09;;;;;;;14.60;9.40;;;-0.20;97.70;;;;;;5061488;28;20190;-74
2022/03/14 04:17:38;;;;;;;9.53;8.50;;;-0.20;97.90;;;;;;5057906;28;20191;-74
2022/03/14 04:20:09;;;;;;;11.27;9.07;;;-0.10;97.90;;;;;;5060326;28;20667;-74
2022/03/14 04:22:39;;;;;;;10.60;9.37;;;0.00;97.70;;;;;;5071167;28;20180;-74
2022/03/14 04:25:06;;;;;;;11.53;9.90;;;0.00;98.00;;;;;;5058743;28;20176;-74
2022/03/14 04:27:32;;;;;;;11.47;8.97;;;0.20;97.40;;;;;;5068745;28;20180;-74
2022/03/14 04:29:58;;;;;;;11.43;8.50;;;0.20;97.80;;;;;;5073797;28;20250;-73
2022/03/14 04:32:24;;;;;;;15.47;9.67;;;0.20;97.80;;;;;;5066305;28;20297;-74
2022/03/14 04:34:50;;;;;;;11.17;9.60;;;0.20;97.90;;;;;;5068471;28;20662;-74
2022/03/14 04:37:16;;;;;;;11.83;9.67;;;0.20;98.00;;;;;;5063996;28;20176;-74
2022/03/14 04:39:42;;;;;;;9.57;8.60;;;0.20;98.50;;;;;;5061681;28;20175;-74
2022/03/14 04:42:09;;;;;;;11.23;8.37;;;0.20;98.40;;;;;;5069816;28;20325;-74
2022/03/14 04:44:35;;;;;;;10.67;9.07;;;0.30;98.00;;;;;;5068397;28;20629;-74
2022/03/14 04:47:02;;;;;;;10.90;9.30;;;0.40;97.50;;;;;;5060630;28;20172;-74
2022/03/14 04:49:28;;;;;;;11.77;9.50;;;0.50;97.50;;;;;;5062099;28;20179;-75
2022/03/14 04:51:55;;;;;;;13.73;10.13;;;0.40;97.90;;;;;;5059636;28;20179;-75
2022/03/14 04:54:24;;;;;;;11.80;9.60;;;0.40;98.60;;;;;;5061193;28;20213;-75
2022/03/14 04:56:50;;;;;;;11.80;9.63;;;0.40;98.30;;;;;;5062702;28;20657;-75
2022/03/14 04:59:16;;;;;;;14.70;10.20;;;0.40;99.60;;;;;;5060088;28;20566;-75
2022/03/14 05:01:43;;;;;;;11.13;8.80;;;0.40;99.10;;;;;;5061695;28;20207;-75
2022/03/14 05:04:09;;;;;;;12.13;9.33;;;0.40;98.70;;;;;;5056358;28;20206;-75
2022/03/14 05:06:34;;;;;;;10.33;9.03;;;0.50;98.00;;;;;;5056358;28;20179;-74
2022/03/14 05:09:01;;;;;;;11.53;8.87;;;0.50;98.60;;;;;;5061791;28;20266;-74
2022/03/14 05:11:27;;;;;;;15.37;9.87;;;0.50;98.70;;;;;;5067394;28;20163;-73
2022/03/14 05:13:53;;;;;;;14.03;9.80;;;0.40;98.80;;;;;;5069358;28;20214;-73
2022/03/14 05:16:19;;;;;;;10.83;9.60;;;0.40;98.40;;;;;;5060561;28;20218;-74
2022/03/14 05:18:45;;;;;;;14.10;9.47;;;0.40;98.00;;;;;;5064580;28;20180;-74
2022/03/14 05:21:11;;;;;;;11.23;9.07;;;0.60;97.60;;;;;;5063811;28;20209;-75
2022/03/14 05:23:36;;;;;;;12.23;9.50;;;0.50;98.70;;;;;;5059370;28;20286;-74
2022/03/14 05:26:02;;;;;;;10.43;8.97;;;0.40;98.80;;;;;;5060261;28;20686;-75
2022/03/14 05:28:28;;;;;;;11.77;9.57;;;0.40;98.40;;;;;;5056088;28;20214;-74
2022/03/14 05:30:54;;;;;;;12.23;9.13;;;0.40;98.10;;;;;;5067693;28;20662;-72
2022/03/14 05:33:20;;;;;;;12.13;9.60;;;0.40;98.50;;;;;;5064863;28;20299;-74
2022/03/14 05:35:46;;;;;;;14.20;9.47;;;0.50;99.30;;;;;;5065456;28;20215;-75
2022/03/14 05:38:12;;;;;;;16.27;10.20;;;0.50;99.60;;;;;;5063476;28;20207;-74
2022/03/14 05:40:37;;;;;;;12.07;9.63;;;0.60;99.90;;;;;;5074816;28;20207;-75
2022/03/14 05:43:07;;;;;;;10.70;8.70;;;0.60;99.60;;;;;;5070732;28;20252;-77
2022/03/14 05:45:33;;;;;;;12.23;8.97;;;0.70;99.30;;;;;;5067962;28;20196;-77
2022/03/14 05:47:59;;;;;;;12.80;9.03;;;0.70;98.00;;;;;;5063817;28;20646;-76
2022/03/14 05:50:25;;;;;;;12.50;9.00;;;0.90;97.80;;;;;;5065918;28;20190;-76
2022/03/14 05:52:52;;;;;;;12.67;9.60;;;0.90;97.10;;;;;;5058183;28;20290;-75
2022/03/14 05:55:17;;;;;;;10.23;9.10;;;0.90;97.20;;;;;;5067160;28;20263;-74
2022/03/14 05:57:44;;;;;;;12.83;9.10;;;0.90;97.70;;;;;;5071289;28;20240;-76
2022/03/14 06:00:12;;;;;;;12.93;9.60;;;0.90;97.90;;;;;;5069634;28;20289;-74
2022/03/14 06:02:38;;;;;;;15.10;9.27;;;0.90;97.70;;;;;;5072654;28;20187;-76
2022/03/14 06:05:05;;;;;;;10.77;8.50;;;0.90;97.80;;;;;;5072662;28;20191;-73
2022/03/14 06:07:31;;;;;;;10.37;8.60;;;1.00;97.70;;;;;;5071333;28;20379;-74
2022/03/14 06:09:57;;;;;;;9.43;8.50;;;1.10;97.00;;;;;;5070360;28;20247;-75
2022/03/14 06:12:30;;;;;;;11.67;8.87;;;1.10;96.60;;;;;;5066737;28;20187;-75
2022/03/14 06:15:02;;;;;;;10.37;9.37;;;1.30;96.20;;;;;;5065810;28;20780;-77
2022/03/14 06:17:27;;;;;;;11.27;8.50;;;1.40;95.70;;;;;;5064101;28;20321;-71
2022/03/14 06:19:53;;;;;;;12.50;9.40;;;1.40;95.70;;;;;;5072581;28;20266;-72
2022/03/14 06:22:22;;;;;;;13.60;8.73;;;1.50;97.10;;;;;;5071038;28;20202;-73
2022/03/14 06:24:48;;;;;;;12.03;8.83;;;1.60;96.90;;;;;;5069384;28;20203;-73
2022/03/14 06:27:18;;;;;;;13.50;9.63;;;1.80;95.60;;;;;;5062777;28;20194;-72
2022/03/14 06:29:44;;;;;;;12.73;9.60;;;1.90;95.60;;;;;;5071587;28;20223;-71
2022/03/14 06:32:11;;;;;;;12.07;9.10;;;2.10;95.70;;;;;;5075128;28;20556;-71
2022/03/14 06:34:41;;;;;;;12.17;9.13;;;2.30;95.80;;;;;;5064479;28;20207;-71
2022/03/14 06:37:07;;;;;;;12.30;9.80;;;2.50;95.10;;;;;;5064379;28;20183;-70
2022/03/14 06:39:37;;;;;;;13.00;9.37;;;2.60;94.60;;;;;;5085488;28;20190;-69
2022/03/14 06:42:09;;;;;;;12.20;9.37;;;2.70;92.90;;;;;;5060601;28;20217;-71
2022/03/14 06:44:38;;;;;;;14.27;9.83;;;2.70;92.20;;;;;;5062719;28;20199;-71
2022/03/14 06:47:04;;;;;;;13.80;9.53;;;3.00;92.00;;;;;;5070467;28;20183;-72
2022/03/14 06:49:30;;;;;;;14.00;9.23;;;3.20;92.10;;;;;;5066425;28;20179;-75
2022/03/14 06:51:56;;;;;;;11.47;10.03;;;3.40;91.80;;;;;;5067090;28;20628;-73
2022/03/14 06:54:22;;;;;;;12.33;9.70;;;3.50;91.70;;;;;;5070365;28;20218;-74
2022/03/14 06:56:48;;;;;;;11.43;9.40;;;3.70;91.40;;;;;;5070376;28;20230;-75
2022/03/14 06:59:14;;;;;;;12.67;9.27;;;3.80;90.90;;;;;;5069047;28;20677;-71
2022/03/14 07:01:40;;;;;;;15.23;10.27;;;3.90;90.50;;;;;;5065961;28;20207;-70
2022/03/14 07:04:06;;;;;;;13.83;10.43;;;4.10;99.80;;;;;;5073326;28;20203;-71
2022/03/14 07:06:32;;;;;;;16.23;10.30;;;4.10;95.10;;;;;;5071250;28;20254;-71
2022/03/14 07:08:58;;;;;;;13.00;10.60;;;4.20;95.60;;;;;;5063219;28;20171;-71
2022/03/14 07:11:23;;;;;;;13.87;10.07;;;4.50;90.50;;;;;;5074682;28;20225;-72
2022/03/14 07:13:49;;;;;;;12.77;10.20;;;4.70;95.80;;;;;;5070417;28;20605;-72
2022/03/14 07:16:14;;;;;;;17.40;10.30;;;5.00;92.00;;;;;;5067242;28;20266;-75
2022/03/14 07:18:40;;;;;;;15.70;11.10;;;5.30;89.00;;;;;;5066606;28;20176;-75
2022/03/14 07:21:06;;;;;;;16.63;10.83;;;5.50;86.10;;;;;;5052898;28;20268;-70
2022/03/14 07:23:31;;;;;;;11.47;10.07;;;5.60;84.20;;;;;;5070334;28;20199;-73
2022/03/14 07:25:57;;;;;;;14.37;10.30;;;5.60;81.30;;;;;;5065144;28;20243;-74
2022/03/14 07:28:22;;;;;;;22.10;10.60;;;5.50;79.60;;;;;;5071526;28;20175;-75
2022/03/14 07:30:48;;;;;;;16.23;10.63;;;5.40;79.70;;;;;;5065144;28;20187;-75
2022/03/14 07:33:15;;;;;;;18.37;10.03;;;5.30;78.00;;;;;;5064755;28;20258;-72
2022/03/14 07:35:40;;;;;;;18.60;10.67;;;5.40;78.30;;;;;;5071657;28;20183;-73
2022/03/14 07:38:07;;;;;;;13.70;10.40;;;5.50;78.70;;;;;;5067176;28;20188;-74
2022/03/14 07:40:33;;;;;;;15.00;9.40;;;5.60;79.20;;;;;;5068182;28;20194;-75
2022/03/14 07:42:59;;;;;;;15.50;9.53;;;5.60;78.20;;;;;;5064905;28;20207;-70
2022/03/14 07:45:26;;;;;;;15.20;10.13;;;5.70;78.70;;;;;;5069308;28;20175;-72
2022/03/14 07:47:53;;;;;;;15.07;9.37;;;6.10;78.20;;;;;;5083948;28;20171;-72
2022/03/14 07:50:19;;;;;;;13.53;9.73;;;6.40;76.50;;;;;;5068428;28;20183;-71
2022/03/14 07:52:46;;;;;;;16.53;10.57;;;6.80;75.70;;;;;;5069691;28;20175;-73
2022/03/14 07:55:11;;;;;;;12.27;10.10;;;7.10;73.30;;;;;;5063993;28;20229;-72
2022/03/14 07:57:38;;;;;;;16.17;9.70;;;7.40;71.30;;;;;;5065711;28;20185;-72
2022/03/14 08:00:08;;;;;;;12.37;9.73;;;7.50;70.70;;;;;;5065527;28;20234;-73
2022/03/14 08:02:34;;;;;;;11.37;8.37;;;7.80;69.30;;;;;;5064657;28;20646;-72
2022/03/14 08:05:00;;;;;;;16.98;9.88;;;8.00;68.60;;;;;;5073314;28;20183;-73
2022/03/14 08:07:28;;;;;;;17.13;9.82;;;8.20;67.30;;;;;;5073919;28;20175;-72
2022/03/14 08:09:54;;;;;;;19.75;10.35;;;8.40;68.00;;;;;;5068061;28;20226;-72
2022/03/14 08:12:21;;;;;;;21.63;9.88;;;8.30;65.20;;;;;;5073414;28;20202;-73
2022/03/14 08:14:47;;;;;;;17.75;10.20;;;8.20;65.20;;;;;;5071686;28;20690;-75
2022/03/14 08:17:14;;;;;;;22.65;9.88;;;8.30;65.60;;;;;;5070017;28;20224;-74
2022/03/14 08:19:40;;;;;;;19.70;9.55;;;8.40;64.40;;;;;;5071873;28;20266;-71
2022/03/14 08:22:05;;;;;;;17.10;9.52;;;8.80;63.20;;;;;;5074273;28;20348;-73
2022/03/14 08:24:32;;;;;;;15.02;9.30;;;8.90;65.30;;;;;;5072800;28;20199;-72
2022/03/14 08:26:58;;;;;;;10.65;8.63;;;9.00;62.90;;;;;;5069448;28;20273;-72
2022/03/14 08:29:24;;;;;;;9.52;8.57;;;9.10;62.20;;;;;;5069644;28;20258;-73
2022/03/14 08:31:50;;;;;;;12.60;9.90;;;9.40;62.00;;;;;;5069420;28;20179;-71
2022/03/14 08:34:16;;;;;;;10.48;9.00;;;9.60;60.60;;;;;;5072068;28;20210;-73
2022/03/14 08:36:42;;;;;;;11.35;8.77;;;9.70;60.00;;;;;;5069735;28;20229;-75
2022/03/14 08:39:09;;;;;;;10.50;9.35;;;9.80;60.00;;;;;;5074319;28;20191;-74
2022/03/14 08:41:36;;;;;;;10.77;8.38;;;9.70;61.30;;;;;;5069911;28;20211;-73
2022/03/14 08:44:04;;;;;;;10.43;8.63;;;9.80;61.60;;;;;;5069763;28;20662;-72
2022/03/14 08:46:30;;;;;;;11.27;9.00;;;10.10;59.10;;;;;;5069309;28;20633;-73
2022/03/14 08:48:55;;;;;;;12.20;9.30;;;10.50;59.20;;;;;;5073614;28;20242;-73
2022/03/14 08:51:21;;;;;;;12.07;8.98;;;11.00;58.40;;;;;;5071308;28;20179;-74
2022/03/14 08:53:47;;;;;;;13.27;8.93;;;11.60;57.40;;;;;;5073564;28;20206;-72
2022/03/14 08:56:12;;;;;;;12.18;9.75;;;12.10;55.60;;;;;;5071237;28;20475;-72
2022/03/14 08:58:38;;;;;;;12.25;9.07;;;12.50;55.10;;;;;;5071203;28;20186;-72
2022/03/14 09:01:05;;;;;;;11.65;9.52;;;12.70;53.80;;;;;;5074051;28;20202;-73
2022/03/14 09:03:31;;;;;;;12.82;8.88;;;12.40;53.60;;;;;;5083277;28;20695;-73
2022/03/14 09:05:57;;;;;;;11.00;9.10;;;12.30;54.10;;;;;;5063942;28;20172;-72
2022/03/14 09:08:32;;;;;;;13.88;8.70;;;12.30;54.30;;;;;;5066654;28;20183;-72
2022/03/14 09:11:00;;;;;;;10.80;8.73;;;12.30;54.10;;;;;;5065891;28;20177;-72
2022/03/14 09:13:27;;;;;;;10.50;8.75;;;12.30;53.90;;;;;;5070825;28;20194;-73
2022/03/14 09:15:52;;;;;;;13.25;9.32;;;12.30;54.00;;;;;;5061378;28;20229;-72
2022/03/14 09:18:20;;;;;;;10.68;9.57;;;12.30;54.10;;;;;;5081901;28;20175;-73
2022/03/14 09:20:47;;;;;;;10.07;8.95;;;12.30;54.30;;;;;;5072607;28;20208;-72
2022/03/14 09:23:13;;;;;;;12.30;9.10;;;12.60;54.50;;;;;;5061882;28;20244;-72
2022/03/14 09:25:38;;;;;;;9.40;8.23;;;13.50;54.10;;;;;;5081329;28;20198;-72
2022/03/14 09:28:04;;;;;;;10.45;8.32;;;14.50;53.20;;;;;;5073986;28;20188;-76
2022/03/14 09:30:30;;;;;;;9.63;8.15;;;15.60;52.10;;;;;;5074321;28;20175;-76
2022/03/14 09:32:55;;;;;;;10.18;8.32;;;16.90;50.50;;;;;;5070661;28;20203;-77
2022/03/14 09:35:23;;;;;;;9.63;8.73;;;18.00;49.30;;;;;;5070212;28;20578;-76
2022/03/14 09:37:50;;;;;;;8.85;8.02;;;18.50;48.20;;;;;;5069049;28;20212;-76
2022/03/14 09:40:19;;;;;;;10.07;9.00;;;18.50;47.80;;;;;;5056758;28;20211;-78
2022/03/14 09:42:48;;;;;;;10.43;9.43;;;17.70;48.70;;;;;;5070177;28;20406;-75
2022/03/14 09:45:15;;;;;;;11.30;8.60;;;16.90;49.80;;;;;;5068943;28;20171;-76
2022/03/14 09:47:47;;;;;;;8.70;7.75;;;16.50;51.10;;;;;;5068857;28;20171;-75
2022/03/14 09:50:34;;;;;;;8.45;7.65;;;16.30;52.30;;;;;;5053927;28;20263;-74
2022/03/14 09:53:08;;;;;;;9.48;7.60;;;16.30;53.80;;;;;;5065143;28;20219;-77
2022/03/14 09:55:41;;;;;;;8.85;7.85;;;17.10;53.10;;;;;;5062727;28;20812;-75
2022/03/14 09:58:09;;;;;;;10.40;7.55;;;18.40;52.30;;;;;;5071737;28;20207;-76
2022/03/14 10:00:35;;;;;;;11.45;8.63;;;19.50;50.30;;;;;;5060687;28;20789;-76
2022/03/14 10:03:03;;;;;;;9.23;8.30;;;20.50;47.10;;;;;;5077697;28;20260;-77
2022/03/14 10:05:29;;;;;;;9.70;8.70;;;22.00;45.60;;;;;;5078153;28;20710;-77
2022/03/14 10:07:54;;;;;;;10.88;8.30;;;24.10;42.50;;;;;;5070182;28;20179;-77
2022/03/14 10:10:20;;;;;;;8.57;7.75;;;25.30;40.30;;;;;;5068898;28;20186;-76
2022/03/14 10:12:52;;;;;;;10.32;7.93;;;26.00;39.40;;;;;;5065395;28;20190;-76
2022/03/14 10:15:19;;;;;;;11.32;7.97;;;26.80;38.20;;;;;;5060757;28;20237;-77
2022/03/14 10:17:44;;;;;;;8.33;7.43;;;27.40;37.20;;;;;;5064213;28;20981;-75
2022/03/14 10:20:10;;;;;;;7.93;7.13;;;26.10;38.80;;;;;;5060980;28;20520;-73
2022/03/14 10:22:38;;;;;;;8.07;6.93;;;25.00;40.60;;;;;;5076129;28;20174;-76
2022/03/14 10:25:09;;;;;;;7.55;6.82;;;24.40;41.20;;;;;;5067452;28;20193;-74
2022/03/14 10:27:36;;;;;;;8.23;6.75;;;24.40;41.70;;;;;;5072293;28;20193;-74
2022/03/14 10:30:03;;;;;;;9.43;7.35;;;24.70;42.20;;;;;;5066772;28;20228;-74
2022/03/14 10:32:33;;;;;;;9.48;7.20;;;24.40;40.90;;;;;;5069182;28;20569;-74
2022/03/14 10:35:05;;;;;;;7.97;7.15;;;23.80;41.30;;;;;;5065229;28;20175;-78
2022/03/14 10:37:32;;;;;;;11.70;7.22;;;23.40;42.10;;;;;;5071991;28;20179;-77
2022/03/14 10:40:18;;;;;;;7.90;7.30;;;22.50;43.50;;;;;;5067738;28;20230;-74
2022/03/14 10:42:43;;;;;;;8.40;7.20;;;21.50;45.20;;;;;;5079225;28;20276;-73
2022/03/14 10:45:17;;;;;;;9.55;6.53;;;20.60;46.60;;;;;;5066744;28;20186;-73
2022/03/14 10:47:51;;;;;;;6.43;5.82;;;19.60;47.90;;;;;;5075795;28;20217;-74
2022/03/14 10:50:30;;;;;;;6.22;5.63;;;18.90;50.90;;;;;;5070383;28;20635;-74
2022/03/14 10:53:07;;;;;;;2.78;2.58;;;18.70;51.10;;;;;;5069869;28;20266;-74
2022/03/14 10:55:45;;;;;;;3.08;2.88;;;18.70;54.30;;;;;;5062066;28;20906;-74
2022/03/14 10:58:16;;;;;;;3.60;3.30;;;18.40;54.20;;;;;;5061876;28;20179;-74
2022/03/14 11:00:49;;;;;;;4.38;4.07;;;18.10;54.00;;;;;;5063315;28;20461;-73
2022/03/14 11:03:23;;;;;;;4.10;3.78;;;17.90;54.60;;;;;;5068047;28;20223;-73
2022/03/14 11:05:49;;;;;;;2.33;2.13;;;18.50;54.40;;;;;;5060920;28;20183;-74
2022/03/14 11:08:24;;;;;;;4.40;1.48;;;20.90;53.10;;;;;;5056935;28;20191;-74
2022/03/14 11:10:50;;;;;;;1.17;1.17;;;23.10;51.00;;;;;;5061866;28;20186;-73
2022/03/14 11:13:16;;;;;;;5.20;1.38;;;25.40;47.30;;;;;;5062743;28;20203;-73
2022/03/14 11:15:41;;;;;;;2.17;1.58;;;25.20;46.80;;;;;;5070159;28;20189;-74
2022/03/14 11:18:07;;;;;;;1.38;1.35;;;24.70;46.90;;;;;;5069253;28;20282;-73
2022/03/14 11:20:33;;;;;;;2.22;1.30;;;23.70;49.00;;;;;;5064669;28;20337;-74
2022/03/14 11:22:59;;;;;;;1.70;1.60;;;23.50;48.50;;;;;;5058624;28;20222;-75
2022/03/14 11:25:25;;;;;;;3.15;1.60;;;22.80;49.00;;;;;;5060147;28;20217;-73
2022/03/14 11:27:54;;;;;;;1.50;1.40;;;22.30;50.90;;;;;;5062799;28;20214;-74
2022/03/14 11:30:20;;;;;;;1.60;1.50;;;22.10;51.40;;;;;;5062536;28;20183;-73
2022/03/14 11:32:46;;;;;;;1.30;1.23;;;23.00;50.00;;;;;;5062253;28;20175;-74
2022/03/14 11:35:12;;;;;;;1.50;1.30;;;23.10;49.20;;;;;;5062927;28;20174;-74
2022/03/14 11:37:41;;;;;;;1.60;1.50;;;22.60;51.00;;;;;;5071364;28;20183;-75
2022/03/14 11:40:08;;;;;;;1.42;1.33;;;24.50;49.50;;;;;;5071226;28;20285;-77
2022/03/14 11:42:34;;;;;;;1.35;1.35;;;26.60;46.30;;;;;;5076869;28;20194;-74
2022/03/14 11:45:03;;;;;;;1.30;1.20;;;29.10;42.60;;;;;;5065912;28;20178;-75
2022/03/14 11:47:30;;;;;;;1.77;1.15;;;30.10;40.70;;;;;;5067969;28;20584;-74
2022/03/14 11:49:55;;;;;;;1.35;1.33;;;28.70;41.40;;;;;;5066530;28;20172;-75
2022/03/14 11:52:25;;;;;;;1.98;1.70;;;27.20;43.30;;;;;;5068886;28;20676;-75
2022/03/14 11:54:58;;;;;;;1.38;1.30;;;25.60;45.10;;;;;;5067865;28;20330;-74
2022/03/14 11:57:35;;;;;;;1.10;1.10;;;23.90;46.70;;;;;;5064437;28;20190;-74
2022/03/14 12:00:25;;;;;;;2.53;1.50;;;22.00;49.10;;;;;;5069136;28;20183;-74
2022/03/14 12:02:56;;;;;;;1.15;1.15;;;20.50;51.80;;;;;;5068835;28;20272;-74
2022/03/14 12:05:31;;;;;;;1.45;1.35;;;19.50;52.70;;;;;;5068658;28;20179;-76
2022/03/14 12:07:57;;;;;;;1.30;1.20;;;18.70;53.90;;;;;;5063841;28;20646;-75
2022/03/14 12:10:34;;;;;;;2.83;1.50;;;17.90;55.30;;;;;;5065315;28;20454;-75
2022/03/14 12:13:01;;;;;;;2.38;1.35;;;17.30;57.10;;;;;;5064269;28;20215;-74
2022/03/14 12:15:36;;;;;;;2.30;1.70;;;18.90;57.30;;;;;;5071968;28;20178;-74
2022/03/14 12:18:02;;;;;;;2.78;1.25;;;21.20;52.60;;;;;;5060634;28;20782;-74
2022/03/14 12:20:29;;;;;;;3.85;1.45;;;22.00;51.20;;;;;;5065940;28;20195;-74
2022/03/14 12:22:54;;;;;;;2.15;1.60;;;24.20;50.10;;;;;;5060689;28;20224;-75
2022/03/14 12:25:42;;;;;;;1.60;1.40;;;27.30;45.30;;;;;;5064554;28;20877;-75
2022/03/14 12:28:29;;;;;;;1.38;1.27;;;30.10;41.40;;;;;;5068133;28;20179;-75
2022/03/14 12:31:10;;;;;;;1.83;1.17;;;32.60;37.70;;;;;;5067601;28;20710;-73
2022/03/14 12:33:41;;;;;;;0.95;0.95;;;32.50;37.00;;;;;;5060367;28;20755;-73
2022/03/14 12:36:31;;;;;;;1.10;1.10;;;33.90;35.30;;;;;;5061794;28;20190;-74
2022/03/14 12:39:09;;;;;;;2.22;1.30;;;33.80;34.40;;;;;;5062559;28;20226;-73
2022/03/14 12:41:39;;;;;;;1.25;1.13;;;32.40;35.30;;;;;;5062879;28;20556;-72
2022/03/14 12:44:24;;;;;;;1.50;1.40;;;30.30;36.80;;;;;;5068707;28;20671;-72
2022/03/14 12:46:52;;;;;;;2.15;1.35;;;27.50;39.80;;;;;;5069107;28;20183;-73